Terminal Aerodrome Forecast
Issued by NWS

Home | Current Version | Previous Version | Text Only | Print | Product List | Glossary On
Versions: 1 2 3 4 5 6 7 8 9 10 11 12 13
000
FTAK31 PAFA 172342
TAFAUN
TAF
PAUN 172342Z 1800/1824 33012KT P6SM SCT040 BKN060
     FM180500 07008KT P6SM SCT040 BKN100
     FM181000 05006KT P6SM SCT100
     FM182100 33010KT P6SM SCT050 BKN070=

USA.gov is the U.S. government's official web portal to all federal, state and local government web resources and services.